sensor_id;sensor_type;location;lat;lon;timestamp;pressure;altitude;pressure_sealevel;temperature;humidity
50684;BME280;36654;45.042;38.994;2023-03-01T00:01:29;102028.03;;;5.28;70.75
50684;BME280;36654;45.042;38.994;2023-03-01T00:03:56;102033.28;;;5.28;70.59
50684;BME280;36654;45.042;38.994;2023-03-01T00:06:22;102029.66;;;5.26;70.85
50684;BME280;36654;45.042;38.994;2023-03-01T00:08:48;102018.50;;;5.30;70.66
50684;BME280;36654;45.042;38.994;2023-03-01T00:11:17;102018.25;;;5.26;70.82
50684;BME280;36654;45.042;38.994;2023-03-01T00:13:44;102026.97;;;5.25;71.00
50684;BME280;36654;45.042;38.994;2023-03-01T00:16:13;102019.63;;;5.19;71.00
50684;BME280;36654;45.042;38.994;2023-03-01T00:18:39;102008.81;;;5.13;71.21
50684;BME280;36654;45.042;38.994;2023-03-01T00:21:05;101979.22;;;5.01;71.30
50684;BME280;36654;45.042;38.994;2023-03-01T00:23:33;102009.13;;;5.19;71.36
50684;BME280;36654;45.042;38.994;2023-03-01T00:25:58;101992.19;;;5.14;71.34
50684;BME280;36654;45.042;38.994;2023-03-01T00:28:27;101979.72;;;5.10;71.37
50684;BME280;36654;45.042;38.994;2023-03-01T00:30:52;101971.00;;;5.11;71.19
50684;BME280;36654;45.042;38.994;2023-03-01T00:33:18;101991.72;;;5.21;71.35
50684;BME280;36654;45.042;38.994;2023-03-01T00:35:44;101999.59;;;5.21;71.42
50684;BME280;36654;45.042;38.994;2023-03-01T00:38:10;101990.91;;;5.22;71.17
50684;BME280;36654;45.042;38.994;2023-03-01T00:40:36;101981.69;;;5.14;71.25
50684;BME280;36654;45.042;38.994;2023-03-01T00:43:03;101990.41;;;5.13;71.36
50684;BME280;36654;45.042;38.994;2023-03-01T00:45:29;101940.47;;;4.80;71.48
50684;BME280;36654;45.042;38.994;2023-03-01T00:47:56;101981.69;;;5.14;71.57
50684;BME280;36654;45.042;38.994;2023-03-01T00:50:23;101979.72;;;5.10;71.24
50684;BME280;36654;45.042;38.994;2023-03-01T00:52:53;101977.09;;;4.93;71.26
50684;BME280;36654;45.042;38.994;2023-03-01T00:55:19;102004.03;;;5.06;71.17
50684;BME280;36654;45.042;38.994;2023-03-01T00:57:44;101988.28;;;5.06;71.13
50684;BME280;36654;45.042;38.994;2023-03-01T01:00:10;101921.94;;;4.77;71.07
50684;BME280;36654;45.042;38.994;2023-03-01T01:02:37;101982.22;;;5.07;71.12
50684;BME280;36654;45.042;38.994;2023-03-01T01:05:03;101927.00;;;4.74;71.30
50684;BME280;36654;45.042;38.994;2023-03-01T01:07:29;101910.28;;;4.72;71.28
50684;BME280;36654;45.042;38.994;2023-03-01T01:09:55;101969.81;;;5.04;70.99
50684;BME280;36654;45.042;38.994;2023-03-01T01:12:20;101973.66;;;4.94;70.98
50684;BME280;36654;45.042;38.994;2023-03-01T01:14:46;101974.88;;;5.01;71.02
50684;BME280;36654;45.042;38.994;2023-03-01T01:17:11;101914.69;;;4.73;70.81
50684;BME280;36654;45.042;38.994;2023-03-01T01:19:37;101985.78;;;5.09;70.44
50684;BME280;36654;45.042;38.994;2023-03-01T01:22:03;101977.75;;;5.06;70.59
50684;BME280;36654;45.042;38.994;2023-03-01T01:24:29;101970.50;;;5.02;70.59
50684;BME280;36654;45.042;38.994;2023-03-01T01:26:54;101978.75;;;5.08;70.69
50684;BME280;36654;45.042;38.994;2023-03-01T01:29:20;101985.16;;;5.13;70.61
50684;BME280;36654;45.042;38.994;2023-03-01T01:31:46;101998.19;;;5.11;70.52
50684;BME280;36654;45.042;38.994;2023-03-01T01:34:20;101961.66;;;5.00;70.36
50684;BME280;36654;45.042;38.994;2023-03-01T01:36:53;101888.94;;;4.49;70.28
50684;BME280;36654;45.042;38.994;2023-03-01T01:39:20;101980.47;;;5.07;70.20
50684;BME280;36654;45.042;38.994;2023-03-01T01:41:46;101978.50;;;5.03;69.72
50684;BME280;36654;45.042;38.994;2023-03-01T01:44:22;101974.63;;;4.96;69.73
50684;BME280;36654;45.042;38.994;2023-03-01T01:47:13;101976.34;;;4.96;69.54
50684;BME280;36654;45.042;38.994;2023-03-01T01:49:47;101967.47;;;4.94;69.70
50684;BME280;36654;45.042;38.994;2023-03-01T01:52:18;101977.03;;;4.92;69.66
50684;BME280;36654;45.042;38.994;2023-03-01T01:55:00;101969.47;;;4.98;69.57
50684;BME280;36654;45.042;38.994;2023-03-01T01:57:31;101959.53;;;4.92;69.60
50684;BME280;36654;45.042;38.994;2023-03-01T02:00:07;101957.56;;;4.88;69.90
50684;BME280;36654;45.042;38.994;2023-03-01T02:02:33;101970.53;;;4.85;70.09
50684;BME280;36654;45.042;38.994;2023-03-01T02:05:08;101946.88;;;4.85;70.06
50684;BME280;36654;45.042;38.994;2023-03-01T02:07:38;101930.78;;;4.79;70.15
50684;BME280;36654;45.042;38.994;2023-03-01T02:10:04;101947.03;;;4.88;70.02
50684;BME280;36654;45.042;38.994;2023-03-01T02:12:30;101938.16;;;4.86;69.94
50684;BME280;36654;45.042;38.994;2023-03-01T02:14:56;101935.06;;;4.77;69.77
50684;BME280;36654;45.042;38.994;2023-03-01T02:17:22;101940.97;;;4.73;69.75
50684;BME280;36654;45.042;38.994;2023-03-01T02:20:07;101950.91;;;4.79;69.81
50684;BME280;36654;45.042;38.994;2023-03-01T02:22:37;101935.88;;;4.76;69.92
50684;BME280;36654;45.042;38.994;2023-03-01T02:30:28;101938.50;;;4.76;69.92
50684;BME280;36654;45.042;38.994;2023-03-01T02:32:56;101884.22;;;4.44;69.79
50684;BME280;36654;45.042;38.994;2023-03-01T02:35:29;101932.25;;;4.74;69.97
50684;BME280;36654;45.042;38.994;2023-03-01T02:37:57;101926.94;;;4.72;69.91
50684;BME280;36654;45.042;38.994;2023-03-01T02:40:28;101927.75;;;4.71;70.06
50684;BME280;36654;45.042;38.994;2023-03-01T02:42:57;101916.19;;;4.68;70.10
50684;BME280;36654;45.042;38.994;2023-03-01T02:45:24;101866.25;;;4.35;70.23
50684;BME280;36654;45.042;38.994;2023-03-01T02:47:50;101942.28;;;4.65;70.33
50684;BME280;36654;45.042;38.994;2023-03-01T02:55:45;101923.22;;;4.52;70.49
50684;BME280;36654;45.042;38.994;2023-03-01T02:58:11;101943.56;;;4.57;70.29
50684;BME280;36654;45.042;38.994;2023-03-01T03:00:40;101903.34;;;4.41;70.56
50684;BME280;36654;45.042;38.994;2023-03-01T03:03:17;101916.41;;;4.56;70.55
50684;BME280;36654;45.042;38.994;2023-03-01T03:05:44;101913.22;;;4.45;70.51
50684;BME280;36654;45.042;38.994;2023-03-01T03:08:10;101917.31;;;4.57;70.51
50684;BME280;36654;45.042;38.994;2023-03-01T03:10:39;101921.59;;;4.54;70.71
50684;BME280;36654;45.042;38.994;2023-03-01T03:13:13;101944.25;;;4.52;70.88
50684;BME280;36654;45.042;38.994;2023-03-01T03:15:39;101909.25;;;4.53;70.81
50684;BME280;36654;45.042;38.994;2023-03-01T03:18:11;101916.25;;;4.53;71.03
50684;BME280;36654;45.042;38.994;2023-03-01T03:20:39;101893.09;;;4.46;71.03
50684;BME280;36654;45.042;38.994;2023-03-01T03:23:06;101904.84;;;4.52;70.99
50684;BME280;36654;45.042;38.994;2023-03-01T03:25:32;101903.94;;;4.52;71.12
50684;BME280;36654;45.042;38.994;2023-03-01T03:27:58;101894.91;;;4.47;71.23
50684;BME280;36654;45.042;38.994;2023-03-01T03:30:31;101837.19;;;4.16;71.19
50684;BME280;36654;45.042;38.994;2023-03-01T03:32:57;101892.34;;;4.48;71.12
50684;BME280;36654;45.042;38.994;2023-03-01T03:35:30;101888.94;;;4.49;71.30
50684;BME280;36654;45.042;38.994;2023-03-01T03:37:57;101902.88;;;4.48;71.37
50684;BME280;36654;45.042;38.994;2023-03-01T03:40:36;101916.88;;;4.49;71.25
50684;BME280;36654;45.042;38.994;2023-03-01T03:43:22;101901.22;;;4.50;71.12
50684;BME280;36654;45.042;38.994;2023-03-01T03:45:49;101886.94;;;4.45;71.26
50684;BME280;36654;45.042;38.994;2023-03-01T03:48:16;101886.84;;;4.44;71.39
50684;BME280;36654;45.042;38.994;2023-03-01T03:50:48;101885.84;;;4.42;71.36
50684;BME280;36654;45.042;38.994;2023-03-01T03:53:14;101886.78;;;4.42;71.47
50684;BME280;36654;45.042;38.994;2023-03-01T03:55:40;101905.97;;;4.41;71.46
50684;BME280;36654;45.042;38.994;2023-03-01T03:58:07;101844.03;;;4.12;71.47
50684;BME280;36654;45.042;38.994;2023-03-01T04:00:35;101885.94;;;4.43;71.66
50684;BME280;36654;45.042;38.994;2023-03-01T04:03:02;101891.22;;;4.43;71.67
50684;BME280;36654;45.042;38.994;2023-03-01T04:05:28;101883.91;;;4.38;71.63
50684;BME280;36654;45.042;38.994;2023-03-01T04:07:53;101907.13;;;4.46;71.48
50684;BME280;36654;45.042;38.994;2023-03-01T04:10:30;101874.81;;;4.47;71.52
50684;BME280;36654;45.042;38.994;2023-03-01T04:12:56;101879.91;;;4.44;71.85
50684;BME280;36654;45.042;38.994;2023-03-01T04:15:23;101886.78;;;4.42;71.99
50684;BME280;36654;45.042;38.994;2023-03-01T04:17:51;101822.34;;;4.16;72.19
50684;BME280;36654;45.042;38.994;2023-03-01T04:20:20;101862.97;;;4.39;72.31
50684;BME280;36654;45.042;38.994;2023-03-01T04:22:58;101882.19;;;4.38;72.54
50684;BME280;36654;45.042;38.994;2023-03-01T04:25:25;101877.75;;;4.37;72.47
50684;BME280;36654;45.042;38.994;2023-03-01T04:27:50;101861.81;;;4.34;72.72
50684;BME280;36654;45.042;38.994;2023-03-01T04:30:16;101861.81;;;4.34;72.90
50684;BME280;36654;45.042;38.994;2023-03-01T04:32:42;101851.31;;;4.34;72.99
50684;BME280;36654;45.042;38.994;2023-03-01T04:35:08;101845.91;;;4.31;72.88
50684;BME280;36654;45.042;38.994;2023-03-01T04:37:34;101863.63;;;4.35;72.99
50684;BME280;36654;45.042;38.994;2023-03-01T04:40:01;101854.94;;;4.36;72.78
50684;BME280;36654;45.042;38.994;2023-03-01T04:42:33;101860.34;;;4.39;72.83
50684;BME280;36654;45.042;38.994;2023-03-01T04:44:58;101870.84;;;4.39;72.99
50684;BME280;36654;45.042;38.994;2023-03-01T04:47:24;101857.56;;;4.36;72.87
50684;BME280;36654;45.042;38.994;2023-03-01T04:49:49;101797.50;;;4.09;72.89
50684;BME280;36654;45.042;38.994;2023-03-01T04:52:15;101850.03;;;4.42;72.95
50684;BME280;36654;45.042;38.994;2023-03-01T04:54:40;101834.28;;;4.42;72.73
50684;BME280;36654;45.042;38.994;2023-03-01T04:57:06;101834.66;;;4.33;72.89
50684;BME280;36654;45.042;38.994;2023-03-01T04:59:32;101855.28;;;4.42;72.68
50684;BME280;36654;45.042;38.994;2023-03-01T05:01:57;101857.81;;;4.41;72.84
50684;BME280;36654;45.042;38.994;2023-03-01T05:04:24;101865.59;;;4.39;72.98
50684;BME280;36654;45.042;38.994;2023-03-01T05:06:50;101878.72;;;4.39;73.05
50684;BME280;36654;45.042;38.994;2023-03-01T05:09:16;101892.19;;;4.45;73.14
50684;BME280;36654;45.042;38.994;2023-03-01T05:11:42;101874.47;;;4.41;72.81
50684;BME280;36654;45.042;38.994;2023-03-01T05:14:08;101819.56;;;4.13;72.79
50684;BME280;36654;45.042;38.994;2023-03-01T05:16:35;101872.81;;;4.43;72.82
50684;BME280;36654;45.042;38.994;2023-03-01T05:19:02;101845.50;;;4.40;72.99
50684;BME280;36654;45.042;38.994;2023-03-01T05:21:39;101841.00;;;4.37;72.86
50684;BME280;36654;45.042;38.994;2023-03-01T05:24:23;101850.03;;;4.42;73.05
50684;BME280;36654;45.042;38.994;2023-03-01T05:26:50;101810.47;;;4.23;72.84
50684;BME280;36654;45.042;38.994;2023-03-01T05:29:21;101883.00;;;4.53;72.69
50684;BME280;36654;45.042;38.994;2023-03-01T05:32:00;101883.91;;;4.54;72.73
50684;BME280;36654;45.042;38.994;2023-03-01T05:34:34;101861.81;;;4.34;72.57
50684;BME280;36654;45.042;38.994;2023-03-01T05:37:01;101894.97;;;4.48;72.41
50684;BME280;36654;45.042;38.994;2023-03-01T05:39:28;101848.47;;;4.29;72.63
50684;BME280;36654;45.042;38.994;2023-03-01T05:41:56;101887.44;;;4.54;72.48
50684;BME280;36654;45.042;38.994;2023-03-01T05:44:23;101901.75;;;4.60;72.52
50684;BME280;36654;45.042;38.994;2023-03-01T05:46:49;101875.97;;;4.52;72.36
50684;BME280;36654;45.042;38.994;2023-03-01T05:49:15;101898.84;;;4.55;72.10
50684;BME280;36654;45.042;38.994;2023-03-01T05:51:42;101897.28;;;4.59;72.30
50684;BME280;36654;45.042;38.994;2023-03-01T05:54:09;101901.53;;;4.57;72.13
50684;BME280;36654;45.042;38.994;2023-03-01T05:56:36;101886.72;;;4.57;72.25
50684;BME280;36654;45.042;38.994;2023-03-01T05:59:03;101876.94;;;4.54;72.42
50684;BME280;36654;45.042;38.994;2023-03-01T06:01:30;101885.03;;;4.59;72.39
50684;BME280;36654;45.042;38.994;2023-03-01T06:03:56;101881.69;;;4.62;72.31
50684;BME280;36654;45.042;38.994;2023-03-01T06:06:22;101857.09;;;4.60;72.46
50684;BME280;36654;45.042;38.994;2023-03-01T06:08:48;101870.53;;;4.66;72.22
50684;BME280;36654;45.042;38.994;2023-03-01T06:11:13;101860.19;;;4.69;72.04
50684;BME280;36654;45.042;38.994;2023-03-01T06:13:41;101863.94;;;4.74;71.95
50684;BME280;36654;45.042;38.994;2023-03-01T06:16:07;101865.94;;;4.78;71.66
50684;BME280;36654;45.042;38.994;2023-03-01T06:18:33;101844.41;;;4.85;71.62
50684;BME280;36654;45.042;38.994;2023-03-01T06:20:59;101869.94;;;4.88;71.35
50684;BME280;36654;45.042;38.994;2023-03-01T06:23:24;101872.56;;;4.88;71.45
50684;BME280;36654;45.042;38.994;2023-03-01T06:25:50;101864.53;;;4.85;71.49
50684;BME280;36654;45.042;38.994;2023-03-01T06:28:16;101840.16;;;4.87;71.57
50684;BME280;36654;45.042;38.994;2023-03-01T06:30:42;101851.09;;;4.96;71.35
50684;BME280;36654;45.042;38.994;2023-03-01T06:33:07;101837.31;;;5.01;71.21
50684;BME280;36654;45.042;38.994;2023-03-01T06:35:33;101844.94;;;4.96;70.93
50684;BME280;36654;45.042;38.994;2023-03-01T06:38:01;101845.84;;;4.96;70.61
50684;BME280;36654;45.042;38.994;2023-03-01T06:40:28;101824.69;;;4.93;70.67
50684;BME280;36654;45.042;38.994;2023-03-01T06:42:54;101839.84;;;4.99;70.37
50684;BME280;36654;45.042;38.994;2023-03-01T06:45:20;101856.78;;;5.04;70.59
50684;BME280;36654;45.042;38.994;2023-03-01T06:47:46;101849.06;;;5.07;70.24
50684;BME280;36654;45.042;38.994;2023-03-01T06:50:11;101842.22;;;5.11;70.27
50684;BME280;36654;45.042;38.994;2023-03-01T06:52:38;101839.72;;;5.14;70.03
50684;BME280;36654;45.042;38.994;2023-03-01T06:55:04;101826.91;;;5.20;69.61
50684;BME280;36654;45.042;38.994;2023-03-01T06:57:30;101833.56;;;5.13;69.27
50684;BME280;36654;45.042;38.994;2023-03-01T06:59:56;101820.03;;;5.06;69.30
50684;BME280;36654;45.042;38.994;2023-03-01T07:02:22;101809.16;;;4.98;69.47
50684;BME280;36654;45.042;38.994;2023-03-01T07:04:49;101802.84;;;4.94;69.69
50684;BME280;36654;45.042;38.994;2023-03-01T07:07:15;101809.38;;;5.03;69.50
50684;BME280;36654;45.042;38.994;2023-03-01T07:09:46;101804.88;;;5.00;69.58
50684;BME280;36654;45.042;38.994;2023-03-01T07:12:11;101809.53;;;5.06;69.49
50684;BME280;36654;45.042;38.994;2023-03-01T07:14:37;101815.31;;;5.16;69.27
50684;BME280;36654;45.042;38.994;2023-03-01T07:17:02;101824.13;;;5.17;68.99
50684;BME280;36654;45.042;38.994;2023-03-01T07:19:28;101815.41;;;5.18;68.82
50684;BME280;36654;45.042;38.994;2023-03-01T07:21:54;101826.06;;;5.21;68.66
50684;BME280;36654;45.042;38.994;2023-03-01T07:24:21;101810.00;;;5.15;68.41
50684;BME280;36654;45.042;38.994;2023-03-01T07:26:51;101834.34;;;5.29;68.29
50684;BME280;36654;45.042;38.994;2023-03-01T07:29:18;101821.53;;;5.35;67.98
50684;BME280;36654;45.042;38.994;2023-03-01T07:31:44;101810.16;;;5.36;67.92
50684;BME280;36654;45.042;38.994;2023-03-01T07:34:10;101785.31;;;5.29;67.70
50684;BME280;36654;45.042;38.994;2023-03-01T07:36:36;101764.34;;;5.13;67.43
50684;BME280;36654;45.042;38.994;2023-03-01T07:39:02;101803.47;;;5.43;67.28
50684;BME280;36654;45.042;38.994;2023-03-01T07:41:29;101790.19;;;5.57;66.74
50684;BME280;36654;45.042;38.994;2023-03-01T07:43:55;101777.06;;;5.59;66.51
50684;BME280;36654;45.042;38.994;2023-03-01T07:46:21;101774.63;;;5.62;66.40
50684;BME280;36654;45.042;38.994;2023-03-01T07:48:46;101786.25;;;5.67;66.04
50684;BME280;36654;45.042;38.994;2023-03-01T07:51:13;101778.59;;;5.72;65.97
50684;BME280;36654;45.042;38.994;2023-03-01T07:53:39;101774.84;;;5.67;65.48
50684;BME280;36654;45.042;38.994;2023-03-01T07:56:10;101779.63;;;5.75;65.13
50684;BME280;36654;45.042;38.994;2023-03-01T07:58:41;101781.59;;;5.79;64.80
50684;BME280;36654;45.042;38.994;2023-03-01T08:01:10;101764.97;;;5.80;64.50
50684;BME280;36654;45.042;38.994;2023-03-01T08:03:36;101777.28;;;5.81;64.30
50684;BME280;36654;45.042;38.994;2023-03-01T08:06:04;101791.34;;;5.82;64.52
50684;BME280;36654;45.042;38.994;2023-03-01T08:08:31;101748.53;;;5.67;64.32
50684;BME280;36654;45.042;38.994;2023-03-01T08:11:00;101752.13;;;5.69;64.10
50684;BME280;36654;45.042;38.994;2023-03-01T08:13:27;101813.22;;;5.99;63.95
50684;BME280;36654;45.042;38.994;2023-03-01T08:15:53;101798.41;;;6.01;63.79
50684;BME280;36654;45.042;38.994;2023-03-01T08:18:20;101807.94;;;5.99;63.42
50684;BME280;36654;45.042;38.994;2023-03-01T08:20:46;101795.72;;;5.99;63.27
50684;BME280;36654;45.042;38.994;2023-03-01T08:23:11;101792.09;;;5.97;63.43
50684;BME280;36654;45.042;38.994;2023-03-01T08:25:37;101751.34;;;5.89;63.56
50684;BME280;36654;45.042;38.994;2023-03-01T08:28:04;101776.75;;;6.07;62.67
50684;BME280;36654;45.042;38.994;2023-03-01T08:30:30;101762.53;;;6.03;62.66
50684;BME280;36654;45.042;38.994;2023-03-01T08:32:56;101700.81;;;5.78;62.56
50684;BME280;36654;45.042;38.994;2023-03-01T08:35:21;101754.16;;;6.12;62.37
50684;BME280;36654;45.042;38.994;2023-03-01T08:37:48;101761.84;;;6.26;62.54
50684;BME280;36654;45.042;38.994;2023-03-01T08:40:13;101746.19;;;6.30;61.72
50684;BME280;36654;45.042;38.994;2023-03-01T08:42:40;101766.97;;;6.43;61.41
50684;BME280;36654;45.042;38.994;2023-03-01T08:45:08;101746.56;;;6.39;60.96
50684;BME280;36654;45.042;38.994;2023-03-01T08:47:35;101777.50;;;6.43;60.98
50684;BME280;36654;45.042;38.994;2023-03-01T08:50:01;101752.94;;;6.44;61.10
50684;BME280;36654;45.042;38.994;2023-03-01T08:52:26;101756.28;;;6.40;61.30
50684;BME280;36654;45.042;38.994;2023-03-01T08:54:52;101717.78;;;6.22;61.21
50684;BME280;36654;45.042;38.994;2023-03-01T08:57:18;101717.22;;;6.30;60.94
50684;BME280;36654;45.042;38.994;2023-03-01T08:59:44;101733.00;;;6.30;60.95
50684;BME280;36654;45.042;38.994;2023-03-01T09:02:15;101738.66;;;6.39;60.94
50684;BME280;36654;45.042;38.994;2023-03-01T09:04:41;101743.53;;;6.49;60.70
50684;BME280;36654;45.042;38.994;2023-03-01T09:07:07;101744.22;;;6.45;60.53
50684;BME280;36654;45.042;38.994;2023-03-01T09:09:34;101707.38;;;6.25;60.52
50684;BME280;36654;45.042;38.994;2023-03-01T09:12:00;101687.16;;;6.24;60.04
50684;BME280;36654;45.042;38.994;2023-03-01T09:14:26;101721.31;;;6.44;59.59
50684;BME280;36654;45.042;38.994;2023-03-01T09:16:52;101753.00;;;6.65;59.30
50684;BME280;36654;45.042;38.994;2023-03-01T09:19:17;101750.44;;;6.66;58.85
50684;BME280;36654;45.042;38.994;2023-03-01T09:21:43;101750.28;;;6.63;58.39
50684;BME280;36654;45.042;38.994;2023-03-01T09:24:19;101727.00;;;6.53;58.77
50684;BME280;36654;45.042;38.994;2023-03-01T09:26:45;101736.28;;;6.64;59.12
50684;BME280;36654;45.042;38.994;2023-03-01T09:29:11;101738.06;;;6.65;59.28
50684;BME280;36654;45.042;38.994;2023-03-01T09:31:37;101739.06;;;6.67;59.21
50684;BME280;36654;45.042;38.994;2023-03-01T09:34:03;101675.84;;;6.27;58.47
50684;BME280;36654;45.042;38.994;2023-03-01T09:36:29;101732.56;;;6.59;58.66
50684;BME280;36654;45.042;38.994;2023-03-01T09:38:54;101704.50;;;6.61;58.77
50684;BME280;36654;45.042;38.994;2023-03-01T09:44:27;101706.47;;;6.65;58.55
50684;BME280;36654;45.042;38.994;2023-03-01T09:46:53;101715.66;;;6.75;58.40
50684;BME280;36654;45.042;38.994;2023-03-01T09:49:24;101725.44;;;6.78;57.91
50684;BME280;36654;45.042;38.994;2023-03-01T09:54:25;101683.31;;;6.58;57.98
50684;BME280;36654;45.042;38.994;2023-03-01T10:05:25;101694.38;;;6.70;57.99
50684;BME280;36654;45.042;38.994;2023-03-01T10:10:36;101690.53;;;6.62;57.84
50684;BME280;36654;45.042;38.994;2023-03-01T10:13:17;101688.72;;;6.61;57.70
50684;BME280;36654;45.042;38.994;2023-03-01T10:15:53;101638.47;;;6.36;57.81
50684;BME280;36654;45.042;38.994;2023-03-01T10:18:24;101672.91;;;6.61;57.29
50684;BME280;36654;45.042;38.994;2023-03-01T10:21:25;101680.81;;;6.61;57.94
50684;BME280;36654;45.042;38.994;2023-03-01T10:23:52;101667.63;;;6.61;58.11
50684;BME280;36654;45.042;38.994;2023-03-01T10:29:19;101659.31;;;6.72;57.14
50684;BME280;36654;45.042;38.994;2023-03-01T10:31:50;101666.59;;;6.79;56.97
50684;BME280;36654;45.042;38.994;2023-03-01T10:34:35;101655.25;;;6.80;56.91
50684;BME280;36654;45.042;38.994;2023-03-01T10:37:16;101663.84;;;6.76;56.70
50684;BME280;36654;45.042;38.994;2023-03-01T10:39:57;101657.59;;;6.74;57.08
50684;BME280;36654;45.042;38.994;2023-03-01T10:42:46;101652.72;;;6.83;56.48
50684;BME280;36654;45.042;38.994;2023-03-01T10:45:33;101635.25;;;6.85;56.37
50684;BME280;36654;45.042;38.994;2023-03-01T10:50:46;101649.38;;;6.87;56.32
50684;BME280;36654;45.042;38.994;2023-03-01T10:53:34;101633.81;;;6.93;55.64
50684;BME280;36654;45.042;38.994;2023-03-01T10:56:12;101631.53;;;7.02;55.13
50684;BME280;36654;45.042;38.994;2023-03-01T10:58:41;101630.09;;;7.10;54.37
50684;BME280;36654;45.042;38.994;2023-03-01T11:03:40;101634.78;;;7.18;53.91
50684;BME280;36654;45.042;38.994;2023-03-01T11:08:45;101638.75;;;7.29;54.36
50684;BME280;36654;45.042;38.994;2023-03-01T11:13:56;101613.06;;;7.47;53.51
50684;BME280;36654;45.042;38.994;2023-03-01T11:19:20;101615.00;;;7.51;52.39
50684;BME280;36654;45.042;38.994;2023-03-01T11:21:57;101616.41;;;7.43;52.49
50684;BME280;36654;45.042;38.994;2023-03-01T11:24:30;101628.44;;;7.35;52.27
50684;BME280;36654;45.042;38.994;2023-03-01T11:27:00;101626.38;;;7.28;51.95
50684;BME280;36654;45.042;38.994;2023-03-01T11:29:35;101601.34;;;7.17;52.25
50684;BME280;36654;45.042;38.994;2023-03-01T11:32:04;101592.47;;;7.15;51.79
50684;BME280;36654;45.042;38.994;2023-03-01T11:34:50;101626.47;;;7.29;51.41
50684;BME280;36654;45.042;38.994;2023-03-01T11:37:37;101605.06;;;7.22;51.82
50684;BME280;36654;45.042;38.994;2023-03-01T11:40:24;101611.22;;;7.22;51.65
50684;BME280;36654;45.042;38.994;2023-03-01T11:45:19;101599.41;;;7.12;50.96
50684;BME280;36654;45.042;38.994;2023-03-01T11:48:06;101583.38;;;7.06;51.32
50684;BME280;36654;45.042;38.994;2023-03-01T11:50:44;101599.91;;;7.25;51.46
50684;BME280;36654;45.042;38.994;2023-03-01T12:01:36;101593.28;;;7.36;50.53
50684;BME280;36654;45.042;38.994;2023-03-01T12:20:28;101585.31;;;7.59;49.07
50684;BME280;36654;45.042;38.994;2023-03-01T12:25:31;101580.50;;;7.71;48.21
50684;BME280;36654;45.042;38.994;2023-03-01T12:30:51;101568.78;;;7.63;46.29
50684;BME280;36654;45.042;38.994;2023-03-01T12:33:52;101569.50;;;7.59;46.38
50684;BME280;36654;45.042;38.994;2023-03-01T12:36:29;101574.56;;;7.52;46.42
50684;BME280;36654;45.042;38.994;2023-03-01T12:42:08;101570.97;;;7.50;44.86
50684;BME280;36654;45.042;38.994;2023-03-01T12:44:51;101566.44;;;7.46;44.63
50684;BME280;36654;45.042;38.994;2023-03-01T12:50:22;101555.03;;;7.47;44.18
50684;BME280;36654;45.042;38.994;2023-03-01T12:52:56;101549.03;;;7.51;42.59
50684;BME280;36654;45.042;38.994;2023-03-01T12:55:34;101549.91;;;7.52;41.70
50684;BME280;36654;45.042;38.994;2023-03-01T13:08:56;101560.56;;;7.31;42.60
50684;BME280;36654;45.042;38.994;2023-03-01T13:11:25;101533.97;;;7.25;42.41
50684;BME280;36654;45.042;38.994;2023-03-01T13:13:51;101554.66;;;7.38;42.08
50684;BME280;36654;45.042;38.994;2023-03-01T13:19:19;101550.19;;;7.35;42.61
50684;BME280;36654;45.042;38.994;2023-03-01T13:21:46;101547.50;;;7.34;42.81
50684;BME280;36654;45.042;38.994;2023-03-01T13:29:46;101519.50;;;6.91;43.37
50684;BME280;36654;45.042;38.994;2023-03-01T13:34:59;101571.72;;;7.01;44.00
50684;BME280;36654;45.042;38.994;2023-03-01T13:37:33;101525.72;;;6.70;44.00
50684;BME280;36654;45.042;38.994;2023-03-01T13:40:03;101574.81;;;6.89;44.30
50684;BME280;36654;45.042;38.994;2023-03-01T13:42:37;101550.91;;;6.85;44.57
50684;BME280;36654;45.042;38.994;2023-03-01T13:45:21;101552.50;;;6.81;44.77
50684;BME280;36654;45.042;38.994;2023-03-01T13:47:52;101549.06;;;6.84;44.71
50684;BME280;36654;45.042;38.994;2023-03-01T13:50:28;101543.81;;;6.84;44.64
50684;BME280;36654;45.042;38.994;2023-03-01T13:53:00;101547.66;;;6.92;44.46
50684;BME280;36654;45.042;38.994;2023-03-01T13:55:38;101553.16;;;6.98;44.38
50684;BME280;36654;45.042;38.994;2023-03-01T13:58:25;101550.78;;;7.04;44.27
50684;BME280;36654;45.042;38.994;2023-03-01T14:01:05;101558.72;;;7.06;44.37
50684;BME280;36654;45.042;38.994;2023-03-01T14:03:33;101550.97;;;7.09;44.33
50684;BME280;36654;45.042;38.994;2023-03-01T14:06:06;101557.00;;;7.06;44.47
50684;BME280;36654;45.042;38.994;2023-03-01T14:08:34;101545.25;;;6.98;44.20
50684;BME280;36654;45.042;38.994;2023-03-01T14:13:51;101560.59;;;6.86;44.19
50684;BME280;36654;45.042;38.994;2023-03-01T14:16:36;101554.34;;;6.84;44.14
50684;BME280;36654;45.042;38.994;2023-03-01T14:19:17;101566.34;;;6.76;43.61
50684;BME280;36654;45.042;38.994;2023-03-01T14:21:44;101565.25;;;6.70;43.53
50684;BME280;36654;45.042;38.994;2023-03-01T14:24:21;101532.19;;;6.56;42.42
50684;BME280;36654;45.042;38.994;2023-03-01T14:26:49;101564.06;;;6.62;42.02
50684;BME280;36654;45.042;38.994;2023-03-01T14:29:34;101556.84;;;6.58;42.30
50684;BME280;36654;45.042;38.994;2023-03-01T14:32:12;101541.50;;;6.48;41.46
50684;BME280;36654;45.042;38.994;2023-03-01T14:34:48;101484.69;;;6.11;40.80
50684;BME280;36654;45.042;38.994;2023-03-01T14:37:30;101558.94;;;6.44;40.25
50684;BME280;36654;45.042;38.994;2023-03-01T14:39:57;101447.84;;;5.69;40.00
50684;BME280;36654;45.042;38.994;2023-03-01T14:42:26;101560.22;;;6.33;40.17
50684;BME280;36654;45.042;38.994;2023-03-01T14:44:54;101581.09;;;6.29;40.40
50684;BME280;36654;45.042;38.994;2023-03-01T14:47:34;101532.50;;;5.99;40.87
50684;BME280;36654;45.042;38.994;2023-03-01T14:50:33;101568.25;;;6.15;41.55